To NAV CANADA Home Page Login to a new session Search on AWWS site Feedback and Comments Disclaimer Vers la page française équivalente Tips FAQ What's new on the site To the Forecasts and Observations / NOTAM section To "File a Flight Plan" website Publications and other links Update of the User's profile FIC Telephone Numbers My Weather Data Folder Route Weather Data Regional Weather Data Local Weather Data To the Forecasts and Observations / NOTAM section
Request Generated 07/03/2015 at 20:15:36 UTC . Weather information available at that time is displayed.

METAR/TAF

ROBERVAL/QC    

METAR CYRJ 032000Z 28011G18KT 220V290 40SM FEW025 BKN120 24/09 A2979
RMK SC2AS5 SLP089 DENSITY ALT 1900FT=
METAR CYRJ 031900Z 31010G18KT 270V340 40SM SCT025 BKN220 24/08 A2979
RMK SC3CI3 SLP090 DENSITY ALT 1900FT=
METAR CYRJ 031800Z 30012G18KT 280V350 40SM SCT025 BKN220 23/09 A2980
RMK SC4CI1 SLP092 DENSITY ALT 1800FT=

TAF CYRJ 031942Z 0320/0402 30008G18KT P6SM SCT030
BECMG 0321/0323 25007KT
FM040000 24006KT P6SM BKN070 BKN180
RMK NXT FCST WILL BE ISSUED AT 041145Z=
Your time UTC time
Weather data provided by Environment Canada and NAV CANADA